createdAt,value
2022-10-19T00:01:22.085Z,5.65
2022-10-19T00:03:56.522Z,5.70
2022-10-19T00:06:34.600Z,5.10
2022-10-19T00:09:07.589Z,5.05
2022-10-19T00:11:42.813Z,4.93
2022-10-19T00:14:14.254Z,4.93
2022-10-19T00:16:41.841Z,5.32
2022-10-19T00:19:12.893Z,5.15
2022-10-19T00:21:42.769Z,5.30
2022-10-19T00:24:12.054Z,4.90
2022-10-19T00:26:39.052Z,5.53
2022-10-19T00:29:06.155Z,5.80
2022-10-19T00:31:32.792Z,5.53
2022-10-19T00:33:59.814Z,5.88
2022-10-19T00:36:27.713Z,5.07
2022-10-19T00:38:55.464Z,5.10
2022-10-19T00:41:26.791Z,5.13
2022-10-19T00:43:59.474Z,4.90
2022-10-19T00:46:27.919Z,4.43
2022-10-19T00:49:03.279Z,5.17
2022-10-19T00:51:33.597Z,4.80
2022-10-19T00:54:02.468Z,4.90
2022-10-19T00:56:29.166Z,4.72
2022-10-19T00:58:55.842Z,4.88
2022-10-19T01:01:27.375Z,5.43
2022-10-19T01:03:54.089Z,5.30
2022-10-19T01:06:23.627Z,5.80
2022-10-19T01:08:50.168Z,5.10
2022-10-19T01:11:31.029Z,4.30
2022-10-19T01:14:25.647Z,5.00
2022-10-19T01:17:13.251Z,4.35
2022-10-19T01:20:06.982Z,4.78
2022-10-19T01:22:45.945Z,4.93
2022-10-19T01:25:36.171Z,5.20
2022-10-19T01:28:40.246Z,5.63
2022-10-19T01:31:35.715Z,5.45
2022-10-19T01:34:16.272Z,5.20
2022-10-19T01:36:48.881Z,5.05
2022-10-19T01:39:25.717Z,4.40
2022-10-19T01:42:02.242Z,5.30
2022-10-19T01:44:37.474Z,4.85
2022-10-19T01:47:12.710Z,5.43
2022-10-19T01:50:02.937Z,5.15
2022-10-19T01:52:31.793Z,5.22
2022-10-19T01:55:04.636Z,5.10
2022-10-19T01:57:37.937Z,5.35
2022-10-19T02:00:08.100Z,5.25
2022-10-19T02:02:39.630Z,5.43
2022-10-19T02:05:11.001Z,5.43
2022-10-19T02:07:41.258Z,4.60
2022-10-19T02:10:08.575Z,5.13
2022-10-19T02:12:38.590Z,5.15
2022-10-19T02:15:14.608Z,5.15
2022-10-19T02:17:47.168Z,5.05
2022-10-19T02:20:17.702Z,5.00
2022-10-19T02:22:46.971Z,5.47
2022-10-19T02:25:13.909Z,5.28
2022-10-19T02:27:44.244Z,4.53
2022-10-19T02:30:14.292Z,5.00
2022-10-19T02:32:44.437Z,4.60
2022-10-19T02:35:13.108Z,4.70
2022-10-19T02:37:40.534Z,5.18
2022-10-19T02:40:10.275Z,4.80
2022-10-19T02:42:48.630Z,5.28
2022-10-19T02:45:24.184Z,4.90
2022-10-19T02:48:27.151Z,5.47
2022-10-19T02:50:58.139Z,5.38
2022-10-19T02:53:27.283Z,4.97
2022-10-19T02:55:56.046Z,5.45
2022-10-19T02:58:22.629Z,4.90
2022-10-19T03:00:49.200Z,4.90
2022-10-19T03:03:15.794Z,4.32
2022-10-19T03:05:44.464Z,4.50
2022-10-19T03:08:11.038Z,4.63
2022-10-19T03:10:44.597Z,4.60
2022-10-19T03:13:11.169Z,4.47
2022-10-19T03:15:38.058Z,4.35
2022-10-19T03:18:07.679Z,4.88
2022-10-19T03:20:34.592Z,4.40
2022-10-19T03:23:05.982Z,4.20
2022-10-19T03:25:32.561Z,4.45
2022-10-19T03:27:59.252Z,5.25
2022-10-19T03:30:26.175Z,4.50
2022-10-19T03:32:54.986Z,4.28
2022-10-19T03:35:21.537Z,4.47
2022-10-19T03:37:50.547Z,4.97
2022-10-19T03:40:17.466Z,4.93
2022-10-19T03:42:46.268Z,4.78
2022-10-19T03:45:15.075Z,4.45
2022-10-19T03:47:41.746Z,4.73
2022-10-19T03:50:11.266Z,4.88
2022-10-19T03:52:40.167Z,4.28
2022-10-19T03:55:07.440Z,4.97
2022-10-19T03:57:34.196Z,4.50
2022-10-19T04:00:00.843Z,5.83
2022-10-19T04:02:27.365Z,5.05
2022-10-19T04:04:55.983Z,4.68
2022-10-19T04:07:22.491Z,5.25
2022-10-19T04:09:51.692Z,5.05
2022-10-19T04:12:18.579Z,4.87
2022-10-19T04:14:56.977Z,4.32
2022-10-19T04:17:24.616Z,4.60
2022-10-19T04:19:51.192Z,4.55
2022-10-19T04:22:20.177Z,4.60
2022-10-19T04:24:46.691Z,4.90
2022-10-19T04:27:13.225Z,4.75
2022-10-19T04:29:42.416Z,4.43
2022-10-19T04:32:11.287Z,4.00
2022-10-19T04:34:40.284Z,4.78
2022-10-19T04:37:06.868Z,4.03
2022-10-19T04:39:40.995Z,3.67
2022-10-19T04:42:07.502Z,4.82
2022-10-19T04:44:36.415Z,4.28
2022-10-19T04:47:03.032Z,4.32
2022-10-19T04:49:29.602Z,4.20
2022-10-19T04:51:58.436Z,5.00
2022-10-19T04:54:25.066Z,4.47
2022-10-19T04:56:54.031Z,4.70
2022-10-19T04:59:20.988Z,4.78
2022-10-19T05:01:47.908Z,4.67
2022-10-19T05:04:16.829Z,4.55
2022-10-19T05:06:45.593Z,4.35
2022-10-19T05:09:12.501Z,4.60
2022-10-19T05:11:39.034Z,4.28
2022-10-19T05:14:08.086Z,4.40
2022-10-19T05:16:34.760Z,4.40
2022-10-19T05:19:01.698Z,4.65
2022-10-19T05:21:29.417Z,4.70
2022-10-19T05:23:57.521Z,4.65
2022-10-19T05:26:26.811Z,4.70
2022-10-19T05:29:04.424Z,4.38
2022-10-19T05:31:33.333Z,5.43
2022-10-19T05:34:00.855Z,5.22
2022-10-19T05:36:39.038Z,5.10
2022-10-19T05:39:15.512Z,4.80
2022-10-19T05:41:46.099Z,4.60
2022-10-19T05:44:18.557Z,5.22
2022-10-19T05:46:47.448Z,4.75
2022-10-19T05:49:16.092Z,4.13
2022-10-19T05:51:43.687Z,4.50
2022-10-19T05:54:11.400Z,4.88
2022-10-19T05:56:40.779Z,4.80
2022-10-19T05:59:08.904Z,4.28
2022-10-19T06:01:36.341Z,5.13
2022-10-19T06:04:08.502Z,5.60
2022-10-19T06:06:37.792Z,5.75
2022-10-19T06:09:04.748Z,4.80
2022-10-19T06:11:35.105Z,4.47
2022-10-19T06:14:08.162Z,4.47
2022-10-19T06:16:38.012Z,4.70
2022-10-19T06:19:09.810Z,5.55
2022-10-19T06:21:41.834Z,4.80
2022-10-19T06:24:14.188Z,5.35
2022-10-19T06:26:43.011Z,5.28
2022-10-19T06:29:10.018Z,4.77
2022-10-19T06:31:39.139Z,4.70
2022-10-19T06:34:06.174Z,4.60
2022-10-19T06:36:33.385Z,4.72
2022-10-19T06:39:03.972Z,6.07
2022-10-19T06:41:31.718Z,7.17
2022-10-19T06:44:01.187Z,6.53
2022-10-19T06:46:28.297Z,5.88
2022-10-19T06:48:55.882Z,6.20
2022-10-19T06:51:23.078Z,5.78
2022-10-19T06:53:52.950Z,6.30
2022-10-19T06:56:25.827Z,7.45
2022-10-19T06:58:53.216Z,8.10
2022-10-19T07:01:22.728Z,7.95
2022-10-19T07:03:53.714Z,7.90
2022-10-19T07:06:25.032Z,7.10
2022-10-19T07:08:52.479Z,6.80
2022-10-19T07:11:20.550Z,6.50
2022-10-19T07:13:49.474Z,6.45
2022-10-19T07:16:21.434Z,6.40
2022-10-19T07:18:50.284Z,5.73
2022-10-19T07:21:17.891Z,5.60
2022-10-19T07:23:49.571Z,5.68
2022-10-19T07:26:27.819Z,11.88
2022-10-19T07:28:57.528Z,6.07
2022-10-19T07:31:26.158Z,28.97
2022-10-19T07:33:57.773Z,12.98
2022-10-19T07:36:25.706Z,7.38
2022-10-19T07:38:55.058Z,5.78
2022-10-19T07:41:26.635Z,6.05
2022-10-19T07:43:54.457Z,6.13
2022-10-19T07:46:23.597Z,6.53
2022-10-19T07:48:50.484Z,5.47
2022-10-19T07:51:22.342Z,5.57
2022-10-19T07:53:51.481Z,5.32
2022-10-19T07:56:25.963Z,5.43
2022-10-19T07:58:57.533Z,5.85
2022-10-19T08:01:29.046Z,6.15
2022-10-19T08:04:48.702Z,6.75
2022-10-19T08:06:43.955Z,6.88
2022-10-19T08:09:27.646Z,6.30
2022-10-19T08:12:01.640Z,6.15
2022-10-19T08:14:30.457Z,6.15
2022-10-19T08:16:57.127Z,5.78
2022-10-19T08:19:26.122Z,6.13
2022-10-19T08:21:57.685Z,6.03
2022-10-19T08:24:28.777Z,5.78
2022-10-19T08:26:55.689Z,5.70
2022-10-19T08:29:26.628Z,5.63
2022-10-19T08:31:55.729Z,5.68
2022-10-19T08:34:22.321Z,6.30
2022-10-19T08:36:48.903Z,6.03
2022-10-19T08:39:18.280Z,6.50
2022-10-19T08:44:46.131Z,6.68
2022-10-19T08:47:58.213Z,6.70
2022-10-19T08:50:46.792Z,7.15
2022-10-19T08:53:15.796Z,7.05
2022-10-19T08:55:48.564Z,8.15
2022-10-19T08:58:23.164Z,8.07
2022-10-19T09:00:56.218Z,6.87
2022-10-19T09:03:56.630Z,8.68
2022-10-19T09:06:32.059Z,8.05
2022-10-19T09:08:59.224Z,8.73
2022-10-19T09:11:30.461Z,9.48
2022-10-19T09:14:27.959Z,8.07
2022-10-19T09:17:01.849Z,8.35
2022-10-19T09:19:32.133Z,8.10
2022-10-19T09:22:08.552Z,9.38
2022-10-19T09:24:44.055Z,8.65
2022-10-19T09:27:46.713Z,9.23
2022-10-19T09:30:19.862Z,8.38
2022-10-19T09:32:51.936Z,8.98
2022-10-19T09:35:18.407Z,8.35
2022-10-19T09:37:48.592Z,8.45
2022-10-19T09:40:23.632Z,8.70
2022-10-19T09:42:57.486Z,8.80
2022-10-19T09:45:33.974Z,8.27
2022-10-19T09:48:07.238Z,7.97
2022-10-19T09:50:45.718Z,8.20
2022-10-19T09:53:19.746Z,8.20
2022-10-19T09:55:53.538Z,7.65
2022-10-19T09:58:20.708Z,8.45
2022-10-19T10:00:55.174Z,8.73
2022-10-19T10:03:24.626Z,7.60
2022-10-19T10:05:55.839Z,8.63
2022-10-19T10:08:38.098Z,7.60
2022-10-19T10:11:13.325Z,8.05
2022-10-19T10:13:43.921Z,7.55
2022-10-19T10:16:15.178Z,7.72
2022-10-19T10:18:55.358Z,8.03
2022-10-19T10:21:32.110Z,7.25
2022-10-19T10:24:11.911Z,7.63
2022-10-19T10:26:54.894Z,7.85
2022-10-19T10:29:23.004Z,6.78
2022-10-19T10:32:10.574Z,6.97
2022-10-19T10:34:58.367Z,7.88
2022-10-19T10:37:52.490Z,6.78
2022-10-19T10:40:30.449Z,7.93
2022-10-19T10:43:06.513Z,7.45
2022-10-19T10:45:39.641Z,7.07
2022-10-19T10:48:17.647Z,6.45
2022-10-19T10:50:47.500Z,7.20
2022-10-19T10:53:36.115Z,7.15
2022-10-19T10:56:04.763Z,6.47
2022-10-19T10:58:48.026Z,7.53
2022-10-19T11:01:25.981Z,7.63
2022-10-19T11:04:16.479Z,7.63
2022-10-19T11:06:54.516Z,7.15
2022-10-19T11:09:42.263Z,6.90
2022-10-19T11:12:15.870Z,7.87
2022-10-19T11:15:01.284Z,7.28
2022-10-19T11:17:31.159Z,7.18
2022-10-19T11:19:57.710Z,7.13
2022-10-19T11:22:39.455Z,6.88
2022-10-19T11:25:33.486Z,7.20
2022-10-19T11:28:24.667Z,7.07
2022-10-19T11:30:56.801Z,6.82
2022-10-19T11:33:49.012Z,6.65
2022-10-19T11:36:30.381Z,6.10
2022-10-19T11:39:15.172Z,7.83
2022-10-19T11:42:06.556Z,6.28
2022-10-19T11:45:04.222Z,6.90
2022-10-19T11:47:42.082Z,6.88
2022-10-19T11:50:36.472Z,7.78
2022-10-19T11:53:26.055Z,5.93
2022-10-19T11:56:03.562Z,6.88
2022-10-19T11:59:07.670Z,6.22
2022-10-19T12:02:01.563Z,5.75
2022-10-19T12:04:44.037Z,6.05
2022-10-19T12:07:44.372Z,6.77
2022-10-19T12:10:25.929Z,7.28
2022-10-19T12:12:58.941Z,6.30
2022-10-19T12:15:36.419Z,7.63
2022-10-19T12:18:38.697Z,7.13
2022-10-19T12:21:30.973Z,7.03
2022-10-19T12:24:04.974Z,7.72
2022-10-19T12:26:35.657Z,7.53
2022-10-19T12:29:09.148Z,6.90
2022-10-19T12:31:36.426Z,7.07
2022-10-19T12:34:26.946Z,6.23
2022-10-19T12:37:01.824Z,7.47
2022-10-19T12:40:13.172Z,10.05
2022-10-19T12:43:00.609Z,6.78
2022-10-19T12:45:30.492Z,6.50
2022-10-19T12:48:20.386Z,7.07
2022-10-19T12:50:50.044Z,7.20
2022-10-19T12:53:40.994Z,6.53
2022-10-19T12:56:24.594Z,6.80
2022-10-19T12:58:54.071Z,6.85
2022-10-19T13:01:28.267Z,7.13
2022-10-19T13:04:07.745Z,6.00
2022-10-19T13:06:40.863Z,7.00
2022-10-19T13:09:09.973Z,7.15
2022-10-19T13:11:38.723Z,6.38
2022-10-19T13:14:25.383Z,6.60
2022-10-19T13:17:03.990Z,6.28
2022-10-19T13:19:33.091Z,6.15
2022-10-19T13:21:59.599Z,5.40
2022-10-19T13:24:30.496Z,5.78
2022-10-19T13:27:03.154Z,6.47
2022-10-19T13:29:40.599Z,6.18
2022-10-19T13:32:32.230Z,6.07
2022-10-19T13:35:37.550Z,5.70
2022-10-19T13:38:12.337Z,5.82
2022-10-19T13:40:56.881Z,5.63
2022-10-19T13:43:28.422Z,5.95
2022-10-19T13:46:00.905Z,6.90
2022-10-19T13:48:37.130Z,6.47
2022-10-19T13:51:26.827Z,5.63
2022-10-19T13:54:08.192Z,5.30
2022-10-19T13:57:06.743Z,6.00
2022-10-19T13:59:48.276Z,5.47
2022-10-19T14:02:56.265Z,6.43
2022-10-19T14:05:49.833Z,5.53
2022-10-19T14:08:21.964Z,5.50
2022-10-19T14:11:00.996Z,5.65
2022-10-19T14:13:28.691Z,5.57
2022-10-19T14:15:57.428Z,4.90
2022-10-19T14:18:35.456Z,4.72
2022-10-19T14:21:03.372Z,4.77
2022-10-19T14:23:35.738Z,5.32
2022-10-19T14:26:06.653Z,4.90
2022-10-19T14:28:34.425Z,4.10
2022-10-19T14:31:02.397Z,4.45
2022-10-19T14:33:36.394Z,4.60
2022-10-19T14:36:05.817Z,5.50
2022-10-19T14:38:38.336Z,4.50
2022-10-19T14:41:09.224Z,4.80
2022-10-19T14:43:35.812Z,3.90
2022-10-19T14:46:10.880Z,4.70
2022-10-19T14:48:51.411Z,4.75
2022-10-19T14:51:45.112Z,4.18
2022-10-19T14:54:28.935Z,3.85
2022-10-19T14:57:00.818Z,5.00
2022-10-19T14:59:46.919Z,4.50
2022-10-19T15:02:19.517Z,4.57
2022-10-19T15:04:46.944Z,5.13
2022-10-19T15:07:20.740Z,4.40
2022-10-19T15:09:55.082Z,4.57
2022-10-19T15:12:28.273Z,4.20
2022-10-19T15:14:56.227Z,4.18
2022-10-19T15:17:30.183Z,4.47
2022-10-19T15:20:02.078Z,4.18
2022-10-19T15:22:31.790Z,3.95
2022-10-19T15:25:26.356Z,4.30
2022-10-19T15:27:54.243Z,3.70
2022-10-19T15:30:26.858Z,4.15
2022-10-19T15:33:04.757Z,4.60
2022-10-19T15:35:31.414Z,4.60
2022-10-19T15:38:24.808Z,4.13
2022-10-19T15:41:03.562Z,3.85
2022-10-19T15:43:40.995Z,4.78
2022-10-19T15:46:13.531Z,4.55
2022-10-19T15:48:51.123Z,4.53
2022-10-19T15:51:26.232Z,4.53
2022-10-19T15:53:55.096Z,4.82
2022-10-19T15:56:23.283Z,4.75
2022-10-19T15:58:53.849Z,4.68
2022-10-19T16:01:29.150Z,5.13
2022-10-19T16:03:58.273Z,5.60
2022-10-19T16:06:34.566Z,4.13
2022-10-19T16:09:01.793Z,4.53
2022-10-19T16:11:33.516Z,5.05
2022-10-19T16:14:02.894Z,5.57
2022-10-19T16:16:32.143Z,5.17
2022-10-19T16:19:00.288Z,5.07
2022-10-19T16:21:30.153Z,5.63
2022-10-19T16:23:59.501Z,5.57
2022-10-19T16:26:26.885Z,5.93
2022-10-19T16:28:59.136Z,5.53
2022-10-19T16:31:25.780Z,5.50
2022-10-19T16:33:52.747Z,4.90
2022-10-19T16:36:20.793Z,5.57
2022-10-19T16:38:49.699Z,5.38
2022-10-19T16:41:16.866Z,6.27
2022-10-19T16:43:43.473Z,5.50
2022-10-19T16:46:12.964Z,5.35
2022-10-19T16:48:39.596Z,5.70
2022-10-19T16:51:06.514Z,4.68
2022-10-19T16:53:37.031Z,5.40
2022-10-19T16:56:15.005Z,5.97
2022-10-19T16:58:41.954Z,4.63
2022-10-19T17:01:21.628Z,4.93
2022-10-19T17:03:48.677Z,4.80
2022-10-19T17:06:16.019Z,5.93
2022-10-19T17:09:20.207Z,4.88
2022-10-19T17:11:38.142Z,4.78
2022-10-19T17:14:07.755Z,5.50
2022-10-19T17:16:41.557Z,5.97
2022-10-19T17:19:14.181Z,4.80
2022-10-19T17:21:42.999Z,5.25
2022-10-19T17:24:21.054Z,5.72
2022-10-19T17:26:52.131Z,4.82
2022-10-19T17:29:22.068Z,4.97
2022-10-19T17:31:51.667Z,4.77
2022-10-19T17:34:18.987Z,5.03
2022-10-19T17:36:46.792Z,5.35
2022-10-19T17:39:18.126Z,5.07
2022-10-19T17:41:48.938Z,4.68
2022-10-19T17:44:16.660Z,4.37
2022-10-19T17:46:43.715Z,5.45
2022-10-19T17:49:11.145Z,5.45
2022-10-19T17:51:41.082Z,5.45
2022-10-19T17:54:11.391Z,4.95
2022-10-19T17:56:41.253Z,4.00
2022-10-19T17:59:09.096Z,5.60
2022-10-19T18:01:38.541Z,4.68
2022-10-19T18:04:05.440Z,5.35
2022-10-19T18:06:34.221Z,4.85
2022-10-19T18:09:06.236Z,5.07
2022-10-19T18:11:38.649Z,5.20
2022-10-19T18:14:07.964Z,4.80
2022-10-19T18:16:48.892Z,5.30
2022-10-19T18:19:18.708Z,5.20
2022-10-19T18:21:47.453Z,5.30
2022-10-19T18:24:19.363Z,5.15
2022-10-19T18:26:48.949Z,4.97
2022-10-19T18:29:19.230Z,5.38
2022-10-19T18:31:51.402Z,5.32
2022-10-19T18:34:21.768Z,4.43
2022-10-19T18:36:53.452Z,5.15
2022-10-19T18:39:27.770Z,5.00
2022-10-19T18:41:54.976Z,4.03
2022-10-19T18:44:26.642Z,5.00
2022-10-19T18:46:58.864Z,5.20
2022-10-19T18:49:26.016Z,5.35
2022-10-19T18:51:56.053Z,5.53
2022-10-19T18:54:24.202Z,5.35
2022-10-19T18:56:50.827Z,4.50
2022-10-19T18:59:22.170Z,4.40
2022-10-19T19:01:48.857Z,4.05
2022-10-19T19:04:15.489Z,4.10
2022-10-19T19:06:44.618Z,5.10
2022-10-19T19:09:12.830Z,4.65
2022-10-19T19:11:41.972Z,5.10
2022-10-19T19:14:11.686Z,4.18
2022-10-19T19:16:44.493Z,4.28
2022-10-19T19:19:17.942Z,4.70
2022-10-19T19:21:49.978Z,4.60
2022-10-19T19:24:19.230Z,4.37
2022-10-19T19:26:50.383Z,4.60
2022-10-19T19:29:21.112Z,4.93
2022-10-19T19:31:48.287Z,4.53
2022-10-19T19:34:14.868Z,4.90
2022-10-19T19:36:46.845Z,5.20
2022-10-19T19:39:20.745Z,4.93
2022-10-19T19:41:49.146Z,4.90
2022-10-19T19:44:19.428Z,6.00
2022-10-19T19:46:46.342Z,5.22
2022-10-19T19:49:12.930Z,4.53
2022-10-19T19:51:39.511Z,5.07
2022-10-19T19:54:08.725Z,5.22
2022-10-19T19:56:39.428Z,5.07
2022-10-19T19:59:12.619Z,4.93
2022-10-19T20:01:39.586Z,5.27
2022-10-19T20:04:06.535Z,5.32
2022-10-19T20:06:35.947Z,5.13
2022-10-19T20:09:05.072Z,5.30
2022-10-19T20:11:31.978Z,5.03
2022-10-19T20:13:58.564Z,5.77
2022-10-19T20:16:32.250Z,5.32
2022-10-19T20:19:11.125Z,5.40
2022-10-19T20:21:38.704Z,4.97
2022-10-19T20:24:05.798Z,5.15
2022-10-19T20:26:34.879Z,4.77
2022-10-19T20:29:04.951Z,5.40
2022-10-19T20:31:39.478Z,5.07
2022-10-19T20:34:11.232Z,4.72
2022-10-19T20:36:37.919Z,5.03
2022-10-19T20:39:04.705Z,4.87
2022-10-19T20:41:31.270Z,5.25
2022-10-19T20:43:58.159Z,5.03
2022-10-19T20:46:27.578Z,5.30
2022-10-19T20:48:56.782Z,5.13
2022-10-19T20:51:31.760Z,5.30
2022-10-19T20:54:01.184Z,4.78
2022-10-19T20:56:32.721Z,4.47
2022-10-19T20:59:07.492Z,5.22
2022-10-19T21:01:38.613Z,5.00
2022-10-19T21:04:07.473Z,5.27
2022-10-19T21:06:40.255Z,5.78
2022-10-19T21:09:08.690Z,5.63
2022-10-19T21:11:37.869Z,5.20
2022-10-19T21:14:15.432Z,4.68
2022-10-19T21:16:42.407Z,4.87
2022-10-19T21:19:17.470Z,4.68
2022-10-19T21:21:49.224Z,5.50
2022-10-19T21:24:24.252Z,5.30
2022-10-19T21:29:19.108Z,5.53
2022-10-19T21:31:49.103Z,5.25
2022-10-19T21:34:27.855Z,5.65
2022-10-19T21:36:55.292Z,6.05
2022-10-19T21:39:22.281Z,5.35
2022-10-19T21:41:49.443Z,5.10
2022-10-19T21:44:17.711Z,5.15
2022-10-19T21:46:44.538Z,6.35
2022-10-19T21:49:12.280Z,5.70
2022-10-19T21:51:49.181Z,4.95
2022-10-19T21:54:21.263Z,5.67
2022-10-19T21:56:50.223Z,5.75
2022-10-19T21:59:17.934Z,5.88
2022-10-19T22:01:47.113Z,5.22
2022-10-19T22:04:16.180Z,6.05
2022-10-19T22:06:43.256Z,4.77
2022-10-19T22:09:13.956Z,5.03
2022-10-19T22:11:43.034Z,5.50
2022-10-19T22:14:11.595Z,5.75
2022-10-19T22:16:42.884Z,5.45
2022-10-19T22:19:10.243Z,4.90
2022-10-19T22:21:39.531Z,5.93
2022-10-19T22:24:10.519Z,5.82
2022-10-19T22:26:40.581Z,5.07
2022-10-19T22:29:10.537Z,5.90
2022-10-19T22:31:38.059Z,5.90
2022-10-19T22:34:09.693Z,5.78
2022-10-19T22:36:39.503Z,5.53
2022-10-19T22:39:07.152Z,6.50
2022-10-19T22:41:34.167Z,6.20
2022-10-19T22:44:00.757Z,5.27
2022-10-19T22:46:29.545Z,4.97
2022-10-19T22:48:56.126Z,5.50
2022-10-19T22:51:27.573Z,5.30
2022-10-19T22:53:54.638Z,5.40
2022-10-19T22:56:21.138Z,6.00
2022-10-19T22:58:50.361Z,5.22
2022-10-19T23:01:21.578Z,5.22
2022-10-19T23:03:48.210Z,5.35
2022-10-19T23:06:15.534Z,5.60
2022-10-19T23:08:46.708Z,5.33
2022-10-19T23:11:13.984Z,5.40
2022-10-19T23:13:43.389Z,5.57
2022-10-19T23:16:15.818Z,5.68
2022-10-19T23:18:42.451Z,5.40
2022-10-19T23:21:12.407Z,5.60
2022-10-19T23:23:39.374Z,5.53
2022-10-19T23:26:13.729Z,5.43
2022-10-19T23:28:42.454Z,5.70
2022-10-19T23:31:19.896Z,5.43
2022-10-19T23:33:46.960Z,5.90
2022-10-19T23:36:17.303Z,5.40
2022-10-19T23:38:45.048Z,4.57
2022-10-19T23:41:12.864Z,5.00
2022-10-19T23:43:42.625Z,5.22
2022-10-19T23:46:15.084Z,5.03
2022-10-19T23:48:44.421Z,5.53
2022-10-19T23:51:16.889Z,5.30
2022-10-19T23:53:48.496Z,5.18
2022-10-19T23:56:17.995Z,5.07
2022-10-19T23:58:47.662Z,4.77
